Terminal Aerodrome Forecast
Issued by NWS

Home | Current Version | Previous Version | Text Only | Print | Product List | Glossary On
Versions: 1 2 3 4 5 6 7 8 9 10 11 12 13 14 15 16 17 18 19 20 21 22 23
000
FTUS43 KSGF 260500
TAFJLN
TAF
KJLN 260528Z 2606/2706 17008KT P6SM BKN120 OVC200
     FM261100 21009KT P6SM BKN045 OVC100
      TEMPO 2611/2615 5SM -RASN BKN035
     FM261500 29017G28KT P6SM SCT040
     FM262300 31010KT P6SM SKC=

USA.gov is the U.S. government's official web portal to all federal, state and local government web resources and services.